WEATHER/FLIGHT PLANNING

Hattiesburg Radar

 

 

 

 

Weather Links

Flight Planning Links

 

METAR

2015/08/29 22:53 KHBG 292253Z AUTO 16004KT 10SM CLR 31/18 A2999 RMK AO2 SLP152 T03110178

TAF

2015/08/29 18:30 TAF KHBG 291727Z 2918/3018 17005KT P6SM BKN050 FM300900 00000KT 4SM BR FEW120 FM301400 15004KT P6SM SCT040